createdAt,value
2022-11-05T00:00:36.978Z,72.39
2022-11-05T00:03:33.996Z,72.17
2022-11-05T00:06:24.797Z,72.04
2022-11-05T00:09:16.205Z,72.01
2022-11-05T00:12:07.432Z,72.63
2022-11-05T00:14:58.936Z,72.64
2022-11-05T00:17:31.580Z,73.23
2022-11-05T00:20:04.739Z,73.01
2022-11-05T00:22:55.915Z,71.89
2022-11-05T00:25:30.273Z,71.65
2022-11-05T00:28:06.498Z,72.27
2022-11-05T00:30:39.678Z,72.21
2022-11-05T00:33:12.763Z,71.87
2022-11-05T00:35:46.286Z,71.44
2022-11-05T00:38:18.962Z,71.24
2022-11-05T00:40:51.825Z,71.50
2022-11-05T00:43:43.154Z,72.53
2022-11-05T00:46:15.741Z,72.08
2022-11-05T00:49:06.647Z,72.77
2022-11-05T00:51:39.428Z,72.34
2022-11-05T00:54:12.318Z,72.29
2022-11-05T00:56:44.741Z,72.03
2022-11-05T00:59:17.346Z,72.56
2022-11-05T01:01:51.674Z,71.91
2022-11-05T01:04:24.187Z,71.79
2022-11-05T01:06:56.768Z,71.49
2022-11-05T01:09:29.257Z,71.65
2022-11-05T01:12:01.791Z,71.49
2022-11-05T01:14:34.456Z,71.46
2022-11-05T01:17:07.134Z,71.42
2022-11-05T01:19:40.075Z,71.78
2022-11-05T01:22:12.889Z,72.31
2022-11-05T01:24:45.578Z,72.41
2022-11-05T01:27:18.109Z,71.72
2022-11-05T01:29:50.450Z,71.65
2022-11-05T01:32:22.975Z,71.46
2022-11-05T01:34:55.336Z,71.68
2022-11-05T01:37:27.806Z,71.77
2022-11-05T01:40:00.172Z,71.94
2022-11-05T01:42:34.878Z,72.02
2022-11-05T01:45:21.355Z,71.89
2022-11-05T01:48:18.170Z,71.58
2022-11-05T01:51:00.607Z,71.46
2022-11-05T01:53:47.806Z,71.60
2022-11-05T01:56:28.949Z,71.47
2022-11-05T01:59:18.491Z,71.67
2022-11-05T02:01:51.917Z,71.58
2022-11-05T02:04:52.176Z,71.54
2022-11-05T02:07:27.266Z,71.50
2022-11-05T02:10:18.414Z,71.78
2022-11-05T02:12:50.923Z,71.89
2022-11-05T02:15:52.123Z,71.64
2022-11-05T02:18:47.447Z,71.94
2022-11-05T02:21:56.929Z,71.52
2022-11-05T02:24:48.554Z,71.69
2022-11-05T02:27:45.438Z,71.24
2022-11-05T02:30:35.955Z,71.22
2022-11-05T02:33:25.498Z,71.26
2022-11-05T02:36:15.841Z,71.26
2022-11-05T02:39:23.848Z,71.20
2022-11-05T02:42:20.025Z,71.06
2022-11-05T02:45:17.446Z,71.19
2022-11-05T02:48:12.510Z,71.14
2022-11-05T02:51:04.858Z,71.26
2022-11-05T02:53:44.414Z,71.41
2022-11-05T02:56:42.068Z,71.58
2022-11-05T02:59:15.767Z,71.72
2022-11-05T03:01:50.637Z,71.39
2022-11-05T03:04:25.683Z,71.48
2022-11-05T03:07:34.153Z,72.15
2022-11-05T03:10:24.632Z,71.69
2022-11-05T03:13:10.388Z,71.61
2022-11-05T03:16:00.007Z,71.69
2022-11-05T03:19:01.465Z,71.86
2022-11-05T03:21:47.941Z,71.66
2022-11-05T03:24:29.772Z,71.65
2022-11-05T03:27:20.917Z,71.71
2022-11-05T03:30:00.862Z,71.85
2022-11-05T03:32:38.426Z,71.67
2022-11-05T03:35:20.387Z,71.53
2022-11-05T03:37:58.635Z,71.54
2022-11-05T03:40:35.825Z,71.92
2022-11-05T03:43:10.827Z,71.99
2022-11-05T03:46:08.196Z,71.79
2022-11-05T03:48:53.277Z,71.82
2022-11-05T03:51:40.771Z,71.77
2022-11-05T03:54:14.907Z,71.61
2022-11-05T03:57:14.209Z,71.60
2022-11-05T03:59:49.589Z,71.63
2022-11-05T04:02:26.599Z,71.79
2022-11-05T04:04:59.963Z,72.30
2022-11-05T04:07:51.143Z,72.42
2022-11-05T04:10:47.968Z,71.92
2022-11-05T04:13:27.064Z,72.00
2022-11-05T04:16:19.065Z,72.18
2022-11-05T04:18:52.148Z,72.04
2022-11-05T04:21:43.727Z,72.88
2022-11-05T04:24:16.897Z,72.79
2022-11-05T04:26:49.987Z,72.54
2022-11-05T04:29:41.711Z,72.35
2022-11-05T04:32:14.632Z,72.31
2022-11-05T04:34:47.784Z,72.34
2022-11-05T04:37:20.835Z,72.34
2022-11-05T04:39:53.614Z,72.42
2022-11-05T04:42:26.633Z,72.27
2022-11-05T04:44:59.623Z,72.31
2022-11-05T04:47:32.644Z,72.47
2022-11-05T04:50:05.457Z,72.35
2022-11-05T04:52:38.671Z,72.62
2022-11-05T04:55:12.176Z,72.38
2022-11-05T04:57:45.017Z,72.27
2022-11-05T05:00:18.380Z,72.69
2022-11-05T05:02:52.181Z,72.72
2022-11-05T05:05:25.218Z,72.55
2022-11-05T05:08:02.575Z,72.39
2022-11-05T05:10:35.737Z,72.65
2022-11-05T05:13:08.701Z,72.88
2022-11-05T05:15:41.438Z,72.50
2022-11-05T05:18:14.236Z,73.56
2022-11-05T05:21:05.545Z,73.73
2022-11-05T05:23:38.381Z,73.16
2022-11-05T05:26:11.300Z,72.73
2022-11-05T05:28:43.963Z,72.50
2022-11-05T05:31:16.514Z,72.73
2022-11-05T05:33:49.525Z,72.42
2022-11-05T05:36:23.417Z,72.50
2022-11-05T05:38:56.512Z,72.39
2022-11-05T05:41:29.584Z,72.55
2022-11-05T05:44:02.914Z,72.38
2022-11-05T05:46:35.812Z,72.72
2022-11-05T05:49:12.785Z,72.68
2022-11-05T05:51:45.621Z,72.53
2022-11-05T05:54:18.662Z,72.64
2022-11-05T05:56:51.900Z,72.85
2022-11-05T05:59:24.845Z,72.83
2022-11-05T06:01:58.006Z,72.69
2022-11-05T06:04:31.147Z,72.69
2022-11-05T06:07:03.955Z,72.99
2022-11-05T06:09:36.973Z,72.85
2022-11-05T06:12:10.284Z,72.73
2022-11-05T06:14:43.769Z,72.77
2022-11-05T06:17:16.919Z,72.51
2022-11-05T06:19:50.032Z,73.00
2022-11-05T06:22:22.794Z,73.13
2022-11-05T06:24:55.633Z,72.68
2022-11-05T06:27:28.320Z,72.28
2022-11-05T06:30:01.320Z,72.53
2022-11-05T06:32:34.982Z,72.40
2022-11-05T06:35:08.214Z,72.43
2022-11-05T06:37:41.716Z,72.28
2022-11-05T06:40:14.563Z,72.51
2022-11-05T06:42:57.107Z,72.38
2022-11-05T06:45:29.853Z,72.67
2022-11-05T06:48:03.403Z,73.15
2022-11-05T06:50:36.285Z,73.07
2022-11-05T06:53:09.604Z,72.70
2022-11-05T06:55:45.321Z,72.38
2022-11-05T06:58:19.091Z,72.31
2022-11-05T07:00:51.894Z,72.33
2022-11-05T07:03:24.513Z,72.29
2022-11-05T07:06:00.206Z,72.15
2022-11-05T07:08:36.990Z,72.36
2022-11-05T07:11:10.612Z,72.38
2022-11-05T07:13:43.712Z,72.19
2022-11-05T07:16:16.767Z,72.12
2022-11-05T07:18:49.768Z,72.05
2022-11-05T07:21:22.854Z,71.77
2022-11-05T07:23:56.086Z,71.74
2022-11-05T07:26:34.424Z,71.73
2022-11-05T07:29:09.347Z,71.33
2022-11-05T07:31:42.546Z,71.20
2022-11-05T07:34:15.544Z,71.20
2022-11-05T07:36:48.545Z,71.25
2022-11-05T07:39:22.131Z,71.08
2022-11-05T07:42:00.860Z,70.90
2022-11-05T07:44:38.598Z,70.62
2022-11-05T07:47:11.845Z,70.63
2022-11-05T07:49:44.852Z,70.40
2022-11-05T07:52:18.255Z,70.37
2022-11-05T07:54:51.606Z,70.21
2022-11-05T07:57:24.330Z,70.11
2022-11-05T07:59:57.363Z,69.91
2022-11-05T08:02:30.440Z,69.67
2022-11-05T08:05:03.505Z,69.82
2022-11-05T08:07:36.777Z,69.70
2022-11-05T08:10:10.204Z,69.64
2022-11-05T08:12:43.042Z,69.52
2022-11-05T08:15:15.988Z,69.41
2022-11-05T08:17:49.209Z,69.32
2022-11-05T08:20:21.682Z,68.98
2022-11-05T08:22:54.909Z,68.79
2022-11-05T08:25:27.723Z,68.70
2022-11-05T08:28:03.121Z,68.48
2022-11-05T08:30:37.709Z,68.44
2022-11-05T08:33:13.507Z,68.17
2022-11-05T08:35:46.388Z,68.17
2022-11-05T08:38:20.513Z,67.79
2022-11-05T08:41:01.050Z,67.83
2022-11-05T08:43:33.923Z,67.61
2022-11-05T08:46:06.904Z,67.26
2022-11-05T08:48:40.480Z,67.39
2022-11-05T08:51:13.556Z,67.02
2022-11-05T08:53:46.697Z,66.56
2022-11-05T08:56:19.226Z,66.34
2022-11-05T08:58:52.279Z,66.49
2022-11-05T09:01:28.917Z,66.21
2022-11-05T09:04:02.028Z,65.80
2022-11-05T09:06:35.949Z,66.01
2022-11-05T09:09:08.598Z,65.48
2022-11-05T09:12:09.991Z,65.22
2022-11-05T09:14:35.586Z,64.51
2022-11-05T09:17:17.945Z,64.41
2022-11-05T09:19:49.845Z,62.88
2022-11-05T09:22:23.124Z,63.55
2022-11-05T09:24:56.171Z,62.68
2022-11-05T09:27:29.220Z,62.51
2022-11-05T09:30:03.098Z,63.02
2022-11-05T09:32:36.035Z,63.22
2022-11-05T09:35:09.813Z,63.04
2022-11-05T09:37:43.185Z,63.58
2022-11-05T09:40:19.905Z,63.21
2022-11-05T09:42:55.602Z,63.43
2022-11-05T09:45:32.765Z,63.33
2022-11-05T09:48:15.255Z,62.81
2022-11-05T09:50:49.558Z,63.08
2022-11-05T09:53:24.778Z,62.50
2022-11-05T09:56:02.537Z,62.25
2022-11-05T09:58:51.311Z,61.84
2022-11-05T10:01:36.863Z,61.89
2022-11-05T10:04:20.793Z,60.71
2022-11-05T10:07:05.201Z,61.02
2022-11-05T10:09:51.553Z,60.58
2022-11-05T10:12:30.967Z,60.60
2022-11-05T10:15:06.137Z,60.91
2022-11-05T10:17:40.698Z,60.80
2022-11-05T10:20:30.401Z,60.63
2022-11-05T10:23:15.016Z,59.32
2022-11-05T10:25:55.482Z,59.15
2022-11-05T10:28:33.298Z,59.22
2022-11-05T10:31:15.377Z,59.20
2022-11-05T10:33:56.374Z,59.73
2022-11-05T10:36:32.445Z,59.53
2022-11-05T10:39:20.030Z,58.87
2022-11-05T10:42:07.576Z,58.82
2022-11-05T10:44:40.804Z,58.61
2022-11-05T10:47:41.497Z,58.32
2022-11-05T10:50:19.157Z,58.64
2022-11-05T10:53:30.200Z,57.31
2022-11-05T10:56:03.578Z,57.74
2022-11-05T10:58:37.824Z,57.55
2022-11-05T11:01:14.123Z,57.93
2022-11-05T11:03:56.051Z,58.12
2022-11-05T11:06:30.645Z,57.80
2022-11-05T11:09:07.602Z,57.07
2022-11-05T11:11:44.837Z,56.98
2022-11-05T11:14:17.615Z,57.29
2022-11-05T11:16:52.288Z,56.69
2022-11-05T11:19:34.537Z,56.21
2022-11-05T11:22:07.046Z,56.87
2022-11-05T11:24:54.266Z,57.12
2022-11-05T11:27:31.641Z,56.92
2022-11-05T11:30:07.295Z,55.75
2022-11-05T11:32:42.549Z,56.38
2022-11-05T11:35:27.124Z,56.07
2022-11-05T11:38:02.844Z,55.86
2022-11-05T11:40:38.647Z,55.85
2022-11-05T11:43:31.303Z,55.06
2022-11-05T11:46:09.891Z,55.20
2022-11-05T11:48:49.659Z,56.04
2022-11-05T11:51:41.809Z,55.92
2022-11-05T11:54:29.156Z,55.93
2022-11-05T11:57:03.268Z,55.45
2022-11-05T12:00:06.482Z,54.74
2022-11-05T12:03:11.790Z,55.43
2022-11-05T12:06:25.235Z,55.61
2022-11-05T12:09:23.993Z,54.55
2022-11-05T12:12:16.402Z,55.47
2022-11-05T12:14:59.545Z,55.11
2022-11-05T12:17:50.962Z,54.36
2022-11-05T12:21:00.470Z,55.47
2022-11-05T12:23:41.863Z,54.75
2022-11-05T12:26:22.648Z,54.91
2022-11-05T12:29:19.719Z,54.67
2022-11-05T12:32:25.694Z,54.77
2022-11-05T12:35:10.718Z,54.59
2022-11-05T12:38:01.588Z,54.32
2022-11-05T12:40:48.780Z,55.05
2022-11-05T12:43:38.904Z,54.38
2022-11-05T12:46:28.170Z,54.04
2022-11-05T12:49:18.560Z,54.87
2022-11-05T12:51:51.047Z,54.71
2022-11-05T12:54:49.495Z,54.62
2022-11-05T12:57:25.380Z,54.34
2022-11-05T13:00:11.159Z,54.79
2022-11-05T13:03:20.051Z,54.81
2022-11-05T13:06:07.595Z,54.82
2022-11-05T13:08:53.681Z,54.44
2022-11-05T13:11:31.469Z,54.36
2022-11-05T13:14:33.136Z,53.81
2022-11-05T13:17:15.965Z,53.42
2022-11-05T13:20:04.974Z,53.74
2022-11-05T13:22:53.111Z,54.59
2022-11-05T13:25:31.840Z,54.29
2022-11-05T13:28:23.807Z,54.54
2022-11-05T13:31:02.008Z,54.85
2022-11-05T13:33:45.648Z,54.08
2022-11-05T13:36:45.974Z,54.32
2022-11-05T13:39:35.906Z,54.21
2022-11-05T13:42:34.382Z,54.75
2022-11-05T13:45:28.540Z,54.44
2022-11-05T13:48:28.576Z,54.50
2022-11-05T13:51:24.409Z,53.92
2022-11-05T13:54:17.179Z,54.41
2022-11-05T13:57:04.172Z,54.31
2022-11-05T13:59:50.577Z,54.64
2022-11-05T14:02:31.041Z,54.68
2022-11-05T14:05:07.055Z,54.71
2022-11-05T14:07:47.925Z,54.66
2022-11-05T14:10:33.839Z,54.62
2022-11-05T14:13:20.766Z,54.48
2022-11-05T14:16:11.674Z,54.95
2022-11-05T14:18:57.115Z,54.39
2022-11-05T14:21:29.785Z,54.88
2022-11-05T14:24:42.331Z,55.01
2022-11-05T14:27:44.187Z,55.35
2022-11-05T14:30:41.371Z,55.14
2022-11-05T14:33:28.626Z,55.02
2022-11-05T14:36:31.628Z,55.39
2022-11-05T14:39:28.461Z,55.75
2022-11-05T14:42:28.591Z,55.99
2022-11-05T14:45:06.963Z,56.24
2022-11-05T14:47:45.185Z,56.22
2022-11-05T14:50:28.897Z,56.43
2022-11-05T14:53:26.622Z,56.49
2022-11-05T14:56:15.427Z,56.55
2022-11-05T14:58:48.904Z,56.78
2022-11-05T15:01:36.671Z,56.82
2022-11-05T15:04:29.668Z,57.04
2022-11-05T15:07:05.303Z,57.14
2022-11-05T15:09:46.486Z,57.32
2022-11-05T15:12:33.338Z,57.35
2022-11-05T15:15:28.365Z,57.42
2022-11-05T15:18:03.300Z,57.45
2022-11-05T15:20:45.938Z,57.04
2022-11-05T15:23:22.217Z,57.32
2022-11-05T15:26:27.027Z,57.20
2022-11-05T15:28:59.982Z,57.33
2022-11-05T15:31:38.461Z,57.41
2022-11-05T15:34:29.409Z,57.40
2022-11-05T15:37:23.496Z,57.26
2022-11-05T15:39:57.479Z,57.25
2022-11-05T15:42:30.579Z,57.44
2022-11-05T15:45:03.150Z,57.13
2022-11-05T15:47:36.872Z,57.11
2022-11-05T15:50:20.712Z,56.78
2022-11-05T15:52:56.697Z,56.86
2022-11-05T15:55:34.887Z,57.23
2022-11-05T15:58:13.198Z,57.39
2022-11-05T16:00:50.067Z,57.39
2022-11-05T16:03:22.693Z,57.61
2022-11-05T16:05:55.584Z,57.82
2022-11-05T16:08:30.182Z,57.96
2022-11-05T16:11:04.707Z,57.91
2022-11-05T16:13:39.761Z,58.22
2022-11-05T16:16:18.193Z,58.28
2022-11-05T16:18:52.009Z,58.78
2022-11-05T16:21:25.074Z,58.82
2022-11-05T16:24:00.755Z,58.88
2022-11-05T16:27:01.950Z,58.93
2022-11-05T16:29:49.180Z,58.94
2022-11-05T16:32:31.819Z,59.07
2022-11-05T16:35:08.644Z,59.40
2022-11-05T16:37:49.165Z,59.44
2022-11-05T16:40:27.415Z,59.48
2022-11-05T16:43:19.226Z,59.48
2022-11-05T16:45:54.767Z,59.97
2022-11-05T16:48:28.041Z,60.20
2022-11-05T16:51:01.005Z,60.68
2022-11-05T16:53:33.809Z,61.00
2022-11-05T16:56:07.585Z,60.73
2022-11-05T16:58:40.864Z,60.81
2022-11-05T17:01:18.654Z,61.05
2022-11-05T17:03:53.227Z,61.10
2022-11-05T17:06:26.510Z,61.20
2022-11-05T17:08:59.534Z,61.50
2022-11-05T17:11:32.448Z,61.61
2022-11-05T17:14:05.496Z,61.49
2022-11-05T17:16:41.070Z,61.87
2022-11-05T17:19:18.055Z,61.72
2022-11-05T17:21:51.170Z,61.53
2022-11-05T17:24:24.630Z,61.86
2022-11-05T17:26:57.914Z,61.90
2022-11-05T17:29:30.759Z,62.22
2022-11-05T17:32:03.653Z,62.55
2022-11-05T17:34:38.048Z,62.44
2022-11-05T17:37:10.938Z,62.69
2022-11-05T17:39:44.141Z,62.95
2022-11-05T17:42:17.545Z,63.20
2022-11-05T17:44:51.201Z,62.61
2022-11-05T17:47:23.838Z,62.54
2022-11-05T17:49:56.392Z,63.19
2022-11-05T17:52:31.110Z,64.16
2022-11-05T17:55:04.818Z,64.91
2022-11-05T17:57:37.872Z,63.68
2022-11-05T18:00:12.016Z,63.63
2022-11-05T18:02:46.878Z,63.68
2022-11-05T18:05:24.619Z,63.81
2022-11-05T18:07:58.787Z,63.85
2022-11-05T18:10:31.909Z,64.01
2022-11-05T18:13:05.186Z,64.14
2022-11-05T18:15:42.062Z,64.23
2022-11-05T18:18:15.027Z,65.04
2022-11-05T18:20:52.505Z,64.87
2022-11-05T18:23:25.111Z,65.86
2022-11-05T18:25:58.827Z,66.75
2022-11-05T18:28:33.108Z,69.14
2022-11-05T18:31:08.349Z,66.90
2022-11-05T18:33:43.084Z,66.45
2022-11-05T18:36:42.056Z,67.17
2022-11-05T18:39:15.475Z,68.41
2022-11-05T18:41:48.744Z,68.14
2022-11-05T18:44:23.496Z,68.39
2022-11-05T18:46:58.648Z,68.60
2022-11-05T18:49:31.598Z,67.98
2022-11-05T18:52:04.690Z,67.25
2022-11-05T18:54:37.212Z,67.33
2022-11-05T18:57:10.189Z,67.38
2022-11-05T18:59:47.553Z,67.65
2022-11-05T19:02:21.240Z,68.28
2022-11-05T19:07:48.892Z,67.79
2022-11-05T19:10:21.778Z,67.78
2022-11-05T19:12:55.323Z,67.88
2022-11-05T19:15:28.261Z,67.88
2022-11-05T19:18:01.449Z,68.40
2022-11-05T19:20:37.794Z,68.82
2022-11-05T19:23:11.611Z,68.73
2022-11-05T19:25:44.405Z,68.60
2022-11-05T19:28:17.407Z,68.54
2022-11-05T19:30:50.202Z,68.63
2022-11-05T19:33:22.877Z,68.95
2022-11-05T19:35:55.883Z,68.60
2022-11-05T19:38:29.480Z,69.23
2022-11-05T19:41:05.359Z,69.10
2022-11-05T19:43:39.475Z,69.33
2022-11-05T19:46:14.758Z,70.01
2022-11-05T19:48:48.504Z,69.87
2022-11-05T19:51:27.203Z,69.56
2022-11-05T19:54:02.301Z,69.10
2022-11-05T19:56:37.094Z,69.85
2022-11-05T19:59:10.162Z,69.22
2022-11-05T20:01:42.965Z,68.82
2022-11-05T20:04:15.803Z,68.56
2022-11-05T20:06:48.801Z,68.50
2022-11-05T20:09:22.982Z,68.51
2022-11-05T20:11:57.486Z,68.31
2022-11-05T20:14:30.414Z,68.29
2022-11-05T20:17:03.588Z,69.05
2022-11-05T20:19:36.822Z,68.56
2022-11-05T20:22:09.411Z,68.46
2022-11-05T20:24:42.636Z,68.65
2022-11-05T20:27:15.512Z,68.60
2022-11-05T20:29:48.834Z,68.46
2022-11-05T20:32:22.426Z,68.53
2022-11-05T20:34:54.997Z,68.84
2022-11-05T20:37:27.985Z,69.02
2022-11-05T20:40:01.726Z,69.29
2022-11-05T20:42:37.445Z,68.79
2022-11-05T20:45:11.062Z,68.90
2022-11-05T20:47:44.263Z,69.22
2022-11-05T20:50:17.486Z,69.12
2022-11-05T20:52:50.174Z,69.19
2022-11-05T20:55:22.978Z,69.20
2022-11-05T20:57:55.793Z,69.28
2022-11-05T21:00:28.657Z,69.77
2022-11-05T21:03:01.703Z,69.63
2022-11-05T21:05:35.798Z,69.12
2022-11-05T21:08:09.084Z,69.09
2022-11-05T21:10:44.809Z,69.04
2022-11-05T21:13:21.886Z,69.26
2022-11-05T21:16:02.145Z,69.07
2022-11-05T21:18:37.272Z,68.81
2022-11-05T21:21:12.721Z,68.83
2022-11-05T21:23:45.912Z,70.03
2022-11-05T21:26:19.508Z,70.08
2022-11-05T21:28:52.051Z,69.79
2022-11-05T21:31:25.371Z,69.85
2022-11-05T21:33:58.582Z,70.18
2022-11-05T21:36:31.909Z,70.51
2022-11-05T21:39:09.009Z,70.89
2022-11-05T21:41:46.177Z,70.33
2022-11-05T21:44:18.988Z,70.18
2022-11-05T21:46:52.994Z,70.32
2022-11-05T21:49:26.250Z,70.21
2022-11-05T21:52:17.801Z,70.65
2022-11-05T21:55:08.829Z,71.92
2022-11-05T21:58:01.149Z,71.31
2022-11-05T22:00:33.920Z,71.31
2022-11-05T22:03:06.609Z,71.52
2022-11-05T22:05:39.454Z,71.41
2022-11-05T22:08:12.459Z,71.15
2022-11-05T22:10:45.881Z,70.96
2022-11-05T22:13:18.565Z,71.83
2022-11-05T22:16:00.427Z,70.97
2022-11-05T22:18:33.139Z,70.85
2022-11-05T22:21:06.171Z,70.71
2022-11-05T22:23:39.284Z,70.78
2022-11-05T22:26:12.120Z,70.97
2022-11-05T22:28:45.331Z,70.95
2022-11-05T22:31:21.043Z,70.81
2022-11-05T22:33:54.113Z,70.54
2022-11-05T22:36:27.633Z,70.70
2022-11-05T22:39:00.769Z,71.09
2022-11-05T22:41:34.177Z,70.89
2022-11-05T22:44:07.211Z,70.66
2022-11-05T22:46:40.910Z,70.50
2022-11-05T22:49:14.271Z,70.40
2022-11-05T22:51:47.480Z,70.72
2022-11-05T22:54:20.451Z,70.51
2022-11-05T22:56:54.251Z,70.59
2022-11-05T22:59:27.270Z,70.35
2022-11-05T23:02:01.864Z,70.22
2022-11-05T23:04:39.532Z,70.01
2022-11-05T23:07:32.008Z,69.99
2022-11-05T23:10:23.448Z,69.83
2022-11-05T23:12:57.955Z,69.77
2022-11-05T23:15:49.658Z,69.77
2022-11-05T23:18:55.556Z,69.87
2022-11-05T23:21:52.489Z,69.84
2022-11-05T23:24:25.561Z,69.64
2022-11-05T23:26:58.742Z,69.48
2022-11-05T23:29:31.326Z,69.47
2022-11-05T23:32:22.782Z,69.41
2022-11-05T23:34:59.208Z,69.36
2022-11-05T23:37:51.436Z,69.39
2022-11-05T23:40:29.585Z,69.45
2022-11-05T23:43:23.835Z,69.42
2022-11-05T23:46:29.435Z,69.47
2022-11-05T23:49:02.297Z,69.36
2022-11-05T23:51:35.334Z,69.37
2022-11-05T23:54:09.764Z,69.33
2022-11-05T23:56:43.151Z,69.42
2022-11-05T23:59:16.351Z,69.31
